createdAt,value
2024-01-08T00:00:26.986Z,34.72
2024-01-08T00:04:28.656Z,36.01
2024-01-08T00:08:30.196Z,35.00
2024-01-08T00:12:31.743Z,35.63
2024-01-08T00:16:33.389Z,36.73
2024-01-08T00:20:34.854Z,37.09
2024-01-08T00:24:36.369Z,37.25
2024-01-08T00:28:37.971Z,39.99
2024-01-08T00:32:39.527Z,38.60
2024-01-08T00:36:42.202Z,37.48
2024-01-08T00:40:44.271Z,38.08
2024-01-08T00:44:45.903Z,35.91
2024-01-08T00:48:47.432Z,36.45
2024-01-08T00:52:48.991Z,37.56
2024-01-08T00:56:50.545Z,36.86
2024-01-08T01:00:52.060Z,35.63
2024-01-08T01:04:53.989Z,37.59
2024-01-08T01:08:55.587Z,37.74
2024-01-08T01:12:57.142Z,36.68
2024-01-08T01:16:59.080Z,37.64
2024-01-08T01:21:01.160Z,36.30
2024-01-08T01:25:02.675Z,38.40
2024-01-08T01:29:04.286Z,37.41
2024-01-08T01:33:05.860Z,37.34
2024-01-08T01:37:08.994Z,37.23
2024-01-08T01:41:11.650Z,35.93
2024-01-08T01:45:13.196Z,36.13
2024-01-08T01:49:17.357Z,36.28
2024-01-08T01:53:19.063Z,35.35
2024-01-08T01:57:20.842Z,35.46
2024-01-08T02:01:22.356Z,37.57
2024-01-08T02:05:24.155Z,37.07
2024-01-08T02:09:26.092Z,36.74
2024-01-08T02:13:27.536Z,35.50
2024-01-08T02:17:29.070Z,35.92
2024-01-08T02:21:30.816Z,37.54
2024-01-08T02:25:32.601Z,37.26
2024-01-08T02:29:34.183Z,36.25
2024-01-08T02:33:35.821Z,36.52
2024-01-08T02:37:37.321Z,35.72
2024-01-08T02:41:38.882Z,37.96
2024-01-08T02:45:40.478Z,38.34
2024-01-08T02:49:41.976Z,38.50
2024-01-08T02:53:43.565Z,39.15
2024-01-08T02:57:45.036Z,39.31
2024-01-08T03:01:46.508Z,38.26
2024-01-08T03:05:48.237Z,39.78
2024-01-08T03:09:50.456Z,40.77
2024-01-08T03:13:52.040Z,40.18
2024-01-08T03:17:53.953Z,38.42
2024-01-08T03:21:55.520Z,36.27
2024-01-08T03:25:57.015Z,39.73
2024-01-08T03:29:58.541Z,38.58
2024-01-08T03:34:00.455Z,37.65
2024-01-08T03:38:02.394Z,38.30
2024-01-08T03:42:04.113Z,37.75
2024-01-08T03:46:05.694Z,38.11
2024-01-08T03:50:08.192Z,37.36
2024-01-08T03:54:09.962Z,40.33
2024-01-08T03:58:11.610Z,41.02
2024-01-08T04:02:14.108Z,39.71
2024-01-08T04:06:15.904Z,40.24
2024-01-08T04:10:17.481Z,39.51
2024-01-08T04:14:18.978Z,36.98
2024-01-08T04:18:20.656Z,41.04
2024-01-08T04:22:22.190Z,40.36
2024-01-08T04:26:26.214Z,42.25
2024-01-08T04:30:27.870Z,42.95
2024-01-08T04:34:29.386Z,39.64
2024-01-08T04:38:30.962Z,38.85
2024-01-08T04:42:32.496Z,39.34
2024-01-08T04:46:34.056Z,41.07
2024-01-08T04:50:35.654Z,40.00
2024-01-08T04:54:37.157Z,40.01
2024-01-08T04:58:38.685Z,41.41
2024-01-08T05:02:40.309Z,40.09
2024-01-08T05:06:44.260Z,39.88
2024-01-08T05:10:45.836Z,37.65
2024-01-08T05:14:47.326Z,39.47
2024-01-08T05:18:49.112Z,40.86
2024-01-08T05:22:50.693Z,41.36
2024-01-08T05:26:52.217Z,39.78
2024-01-08T05:30:53.907Z,40.13
2024-01-08T05:34:56.179Z,41.78
2024-01-08T05:39:00.620Z,40.00
2024-01-08T05:43:02.160Z,39.77
2024-01-08T05:47:04.036Z,39.37
2024-01-08T05:51:05.818Z,39.67
2024-01-08T05:55:07.950Z,38.87
2024-01-08T05:59:09.567Z,39.75
2024-01-08T06:03:11.160Z,38.02
2024-01-08T06:07:12.860Z,37.90
2024-01-08T06:11:14.434Z,36.73
2024-01-08T06:15:16.687Z,36.65
2024-01-08T06:19:18.253Z,37.04
2024-01-08T06:23:19.815Z,39.32
2024-01-08T06:27:21.298Z,41.00
2024-01-08T06:31:23.150Z,39.65
2024-01-08T06:35:25.047Z,39.63
2024-01-08T06:39:27.573Z,40.09
2024-01-08T06:43:29.080Z,40.81
2024-01-08T06:47:30.627Z,40.83
2024-01-08T06:51:32.174Z,41.52
2024-01-08T06:55:33.797Z,40.85
2024-01-08T06:59:35.339Z,41.83
2024-01-08T07:03:36.881Z,37.94
2024-01-08T07:07:39.010Z,38.15
2024-01-08T07:11:40.619Z,40.62
2024-01-08T07:15:44.851Z,42.25
2024-01-08T07:19:46.313Z,42.27
2024-01-08T07:23:49.558Z,42.56
2024-01-08T07:27:51.537Z,41.06
2024-01-08T07:31:53.238Z,41.67
2024-01-08T07:35:54.941Z,40.78
2024-01-08T07:39:56.423Z,39.39
2024-01-08T07:43:57.923Z,41.32
2024-01-08T07:47:59.719Z,39.70
2024-01-08T07:52:01.622Z,38.49
2024-01-08T07:56:03.882Z,41.21
2024-01-08T08:00:10.612Z,41.26
2024-01-08T08:04:12.379Z,39.37
2024-01-08T08:08:14.937Z,41.82
2024-01-08T08:12:16.844Z,41.43
2024-01-08T08:16:18.536Z,40.91
2024-01-08T08:20:21.742Z,39.07
2024-01-08T08:24:23.708Z,39.19
2024-01-08T08:28:25.452Z,39.94
2024-01-08T08:32:27.211Z,40.40
2024-01-08T08:36:29.602Z,39.28
2024-01-08T08:40:31.136Z,39.00
2024-01-08T08:44:32.808Z,40.12
2024-01-08T08:48:34.373Z,38.78
2024-01-08T08:52:35.947Z,41.24
2024-01-08T08:56:37.681Z,41.23
2024-01-08T09:00:39.430Z,40.71
2024-01-08T09:04:41.028Z,39.34
2024-01-08T09:08:42.834Z,41.53
2024-01-08T09:12:46.897Z,39.21
2024-01-08T09:16:48.610Z,40.87
2024-01-08T09:20:50.195Z,40.22
2024-01-08T09:24:51.766Z,41.62
2024-01-08T09:28:53.289Z,42.45
2024-01-08T09:32:55.019Z,40.01
2024-01-08T09:36:56.789Z,40.60
2024-01-08T09:41:01.702Z,40.33
2024-01-08T09:45:12.119Z,38.47
2024-01-08T09:49:16.025Z,40.09
2024-01-08T09:53:18.209Z,40.17
2024-01-08T09:57:19.724Z,40.14
2024-01-08T10:01:21.329Z,40.47
2024-01-08T10:05:23.249Z,41.41
2024-01-08T10:09:25.646Z,41.16
2024-01-08T10:13:27.857Z,40.68
2024-01-08T10:17:31.719Z,41.08
2024-01-08T10:21:33.398Z,41.83
2024-01-08T10:25:38.967Z,42.04
2024-01-08T10:29:41.869Z,39.89
2024-01-08T10:33:44.493Z,39.91
2024-01-08T10:37:48.550Z,40.54
2024-01-08T10:41:50.855Z,40.49
2024-01-08T10:45:57.348Z,40.03
2024-01-08T10:50:04.119Z,37.78
2024-01-08T10:54:08.670Z,38.85
2024-01-08T10:58:24.119Z,36.08
2024-01-08T11:02:27.675Z,38.52
2024-01-08T11:06:43.767Z,39.62
2024-01-08T11:10:46.754Z,38.36
2024-01-08T11:14:48.708Z,39.55
2024-01-08T11:18:50.581Z,39.61
2024-01-08T11:22:54.195Z,39.58
2024-01-08T11:26:55.697Z,39.61
2024-01-08T11:31:20.138Z,38.15
2024-01-08T11:35:29.140Z,39.53
2024-01-08T11:39:39.445Z,39.10
2024-01-08T11:43:41.364Z,39.52
2024-01-08T11:47:44.636Z,40.05
2024-01-08T11:51:50.141Z,39.44
2024-01-08T11:55:51.717Z,41.20
2024-01-08T11:59:53.844Z,39.29
2024-01-08T12:03:59.755Z,40.57
2024-01-08T12:08:01.469Z,37.18
2024-01-08T12:12:08.037Z,38.22
2024-01-08T12:16:09.736Z,38.73
2024-01-08T12:20:12.677Z,40.07
2024-01-08T12:24:14.963Z,40.08
2024-01-08T12:28:16.460Z,39.58
2024-01-08T12:32:22.672Z,39.41
2024-01-08T12:36:24.273Z,39.31
2024-01-08T12:40:25.773Z,38.28
2024-01-08T12:44:29.401Z,37.62
2024-01-08T12:48:31.117Z,39.93
2024-01-08T12:52:32.778Z,38.02
2024-01-08T12:56:34.384Z,38.44
2024-01-08T13:00:37.019Z,38.79
2024-01-08T13:04:38.791Z,38.50
2024-01-08T13:08:42.413Z,36.93
2024-01-08T13:12:44.097Z,40.41
2024-01-08T13:16:50.136Z,39.07
2024-01-08T13:20:52.165Z,40.39
2024-01-08T13:25:00.556Z,39.18
2024-01-08T13:29:02.057Z,38.15
2024-01-08T13:33:04.031Z,38.77
2024-01-08T13:37:05.801Z,39.12
2024-01-08T13:41:09.274Z,38.20
2024-01-08T13:45:11.700Z,39.28
2024-01-08T13:49:13.391Z,38.75
2024-01-08T13:53:15.594Z,40.85
2024-01-08T13:57:17.075Z,38.53
2024-01-08T14:01:18.754Z,35.59
2024-01-08T14:05:20.539Z,36.18
2024-01-08T14:09:22.115Z,40.47
2024-01-08T14:13:23.601Z,38.70
2024-01-08T14:17:25.169Z,39.70
2024-01-08T14:21:27.139Z,41.16
2024-01-08T14:25:28.675Z,36.67
2024-01-08T14:29:30.205Z,36.62
2024-01-08T14:33:32.028Z,37.41
2024-01-08T14:37:33.904Z,38.13
2024-01-08T14:41:35.589Z,33.14
2024-01-08T14:45:37.303Z,34.39
2024-01-08T14:49:41.592Z,33.38
2024-01-08T14:53:46.054Z,36.10
2024-01-08T14:57:47.573Z,34.92
2024-01-08T15:01:49.080Z,35.92
2024-01-08T15:05:50.706Z,33.75
2024-01-08T15:09:52.214Z,36.98
2024-01-08T15:13:53.804Z,36.60
2024-01-08T15:17:55.648Z,37.73
2024-01-08T15:22:00.250Z,37.19
2024-01-08T15:26:02.809Z,35.33
2024-01-08T15:30:14.916Z,36.39
2024-01-08T15:34:16.747Z,36.20
2024-01-08T15:38:18.321Z,36.99
2024-01-08T15:42:19.976Z,34.47
2024-01-08T15:46:21.522Z,35.14
2024-01-08T15:50:23.455Z,35.56
2024-01-08T15:54:25.082Z,35.09
2024-01-08T15:58:26.703Z,34.92
2024-01-08T16:02:28.501Z,34.46
2024-01-08T16:06:30.248Z,35.85
2024-01-08T16:10:31.894Z,35.77
2024-01-08T16:14:33.982Z,35.64
2024-01-08T16:18:37.142Z,35.58
2024-01-08T16:22:38.978Z,34.22
2024-01-08T16:26:41.920Z,33.85
2024-01-08T16:30:46.247Z,33.68
2024-01-08T16:34:53.310Z,34.05
2024-01-08T16:38:57.747Z,33.55
2024-01-08T16:43:00.305Z,33.83
2024-01-08T16:47:01.816Z,33.48
2024-01-08T16:51:07.260Z,36.49
2024-01-08T16:55:08.950Z,35.93
2024-01-08T16:59:10.649Z,36.14
2024-01-08T17:03:12.425Z,34.49
2024-01-08T17:07:14.001Z,36.84
2024-01-08T17:11:15.645Z,34.70
2024-01-08T17:15:17.159Z,35.42
2024-01-08T17:19:19.546Z,38.18
2024-01-08T17:23:21.699Z,36.06
2024-01-08T17:27:23.246Z,35.95
2024-01-08T17:31:25.490Z,36.08
2024-01-08T17:35:27.054Z,36.88
2024-01-08T17:39:28.627Z,35.71
2024-01-08T17:43:30.117Z,35.78
2024-01-08T17:47:32.765Z,36.27
2024-01-08T17:51:34.450Z,38.03
2024-01-08T17:55:35.982Z,37.54
2024-01-08T17:59:38.268Z,35.47
2024-01-08T18:03:39.940Z,35.11
2024-01-08T18:07:41.420Z,35.99
2024-01-08T18:11:44.256Z,34.98
2024-01-08T18:15:45.965Z,34.71
2024-01-08T18:19:47.738Z,36.96
2024-01-08T18:23:49.550Z,37.52
2024-01-08T18:27:51.809Z,37.30
2024-01-08T18:31:53.351Z,35.57
2024-01-08T18:35:55.040Z,34.97
2024-01-08T18:39:57.152Z,35.85
2024-01-08T18:43:59.376Z,34.49
2024-01-08T18:48:01.339Z,34.63
2024-01-08T18:52:03.771Z,34.02
2024-01-08T18:56:05.503Z,35.38
2024-01-08T19:00:07.916Z,34.98
2024-01-08T19:04:09.966Z,35.14
2024-01-08T19:08:11.766Z,34.31
2024-01-08T19:12:14.048Z,34.87
2024-01-08T19:16:20.404Z,35.84
2024-01-08T19:20:24.858Z,35.04
2024-01-08T19:24:29.513Z,36.27
2024-01-08T19:28:32.375Z,36.26
2024-01-08T19:32:34.025Z,36.05
2024-01-08T19:36:35.578Z,35.54
2024-01-08T19:40:37.057Z,36.53
2024-01-08T19:44:39.389Z,36.46
2024-01-08T19:48:40.968Z,36.97
2024-01-08T19:52:42.556Z,36.68
2024-01-08T19:56:45.640Z,36.83
2024-01-08T20:00:47.553Z,35.84
2024-01-08T20:04:49.363Z,36.91
2024-01-08T20:08:50.957Z,37.25
2024-01-08T20:12:52.648Z,37.31
2024-01-08T20:16:54.262Z,36.56
2024-01-08T20:21:01.632Z,36.45
2024-01-08T20:25:04.013Z,35.85
2024-01-08T20:29:05.665Z,36.38
2024-01-08T20:33:07.481Z,36.48
2024-01-08T20:37:09.108Z,35.88
2024-01-08T20:41:11.801Z,37.06
2024-01-08T20:45:13.361Z,36.76
2024-01-08T20:49:15.231Z,36.32
2024-01-08T20:53:17.005Z,37.70
2024-01-08T20:57:18.715Z,38.16
2024-01-08T21:01:21.043Z,37.20
2024-01-08T21:05:23.333Z,37.25
2024-01-08T21:09:24.962Z,36.42
2024-01-08T21:13:26.548Z,36.53
2024-01-08T21:17:28.268Z,35.97
2024-01-08T21:21:29.977Z,37.40
2024-01-08T21:25:31.730Z,36.55
2024-01-08T21:29:33.465Z,37.28
2024-01-08T21:33:38.444Z,37.03
2024-01-08T21:37:40.284Z,36.84
2024-01-08T21:41:42.874Z,38.41
2024-01-08T21:45:44.646Z,37.62
2024-01-08T21:49:46.447Z,37.68
2024-01-08T21:53:48.508Z,37.25
2024-01-08T21:57:50.064Z,37.64
2024-01-08T22:01:51.592Z,37.67
2024-01-08T22:05:54.231Z,38.31
2024-01-08T22:09:55.889Z,38.02
2024-01-08T22:13:57.390Z,38.08
2024-01-08T22:17:59.202Z,38.07
2024-01-08T22:22:01.066Z,37.93
2024-01-08T22:26:03.579Z,38.35
2024-01-08T22:30:05.942Z,39.21
2024-01-08T22:34:08.264Z,38.79
2024-01-08T22:38:10.061Z,37.46
2024-01-08T22:42:11.903Z,37.31
2024-01-08T22:50:49.435Z,37.45
2024-01-08T22:54:51.146Z,37.65
2024-01-08T22:58:52.663Z,39.12
2024-01-08T23:02:54.188Z,38.89
2024-01-08T23:06:55.765Z,38.76
2024-01-08T23:10:57.291Z,38.98
2024-01-08T23:14:58.975Z,37.24
2024-01-08T23:19:00.594Z,38.81
2024-01-08T23:23:02.809Z,37.40
2024-01-08T23:27:06.095Z,39.19
2024-01-08T23:31:07.802Z,38.78
2024-01-08T23:35:09.726Z,39.89
2024-01-08T23:39:11.391Z,38.72
2024-01-08T23:43:16.948Z,38.00
2024-01-08T23:47:18.586Z,37.97
2024-01-08T23:51:20.102Z,40.77
2024-01-08T23:55:21.573Z,40.42
2024-01-08T23:59:23.057Z,38.70
